createdAt,value
2022-10-24T00:00:32.610Z,1016.90
2022-10-24T00:01:33.203Z,1016.85
2022-10-24T00:02:33.808Z,1016.90
2022-10-24T00:03:34.404Z,1016.84
2022-10-24T00:04:35.002Z,1016.87
2022-10-24T00:05:35.607Z,1016.87
2022-10-24T00:06:36.206Z,1016.82
2022-10-24T00:07:36.809Z,1016.74
2022-10-24T00:08:37.408Z,1016.88
2022-10-24T00:09:38.003Z,1016.80
2022-10-24T00:10:38.606Z,1016.84
2022-10-24T00:11:39.263Z,1016.77
2022-10-24T00:12:39.864Z,1016.77
2022-10-24T00:13:40.461Z,1016.75
2022-10-24T00:14:41.064Z,1016.78
2022-10-24T00:15:41.659Z,1016.65
2022-10-24T00:16:42.256Z,1016.74
2022-10-24T00:17:42.858Z,1016.75
2022-10-24T00:18:44.303Z,1016.83
2022-10-24T00:19:44.906Z,1016.77
2022-10-24T00:20:45.499Z,1016.78
2022-10-24T00:21:46.097Z,1016.81
2022-10-24T00:22:46.969Z,1016.86
2022-10-24T00:23:47.798Z,1016.84
2022-10-24T00:24:48.382Z,1016.81
2022-10-24T00:25:48.981Z,1016.76
2022-10-24T00:26:49.582Z,1016.81
2022-10-24T00:27:50.178Z,1016.84
2022-10-24T00:28:50.908Z,1016.86
2022-10-24T00:29:51.538Z,1016.82
2022-10-24T00:30:52.138Z,1016.76
2022-10-24T00:31:52.747Z,1016.78
2022-10-24T00:32:53.339Z,1016.74
2022-10-24T00:33:53.942Z,1016.74
2022-10-24T00:34:54.544Z,1016.71
2022-10-24T00:35:55.196Z,1016.73
2022-10-24T00:36:55.798Z,1016.72
2022-10-24T00:37:56.396Z,1016.77
2022-10-24T00:38:56.998Z,1016.67
2022-10-24T00:39:57.601Z,1016.74
2022-10-24T00:40:58.253Z,1016.80
2022-10-24T00:41:58.857Z,1016.72
2022-10-24T00:42:59.451Z,1016.71
2022-10-24T00:44:00.100Z,1016.68
2022-10-24T00:45:00.750Z,1016.69
2022-10-24T00:46:01.356Z,1016.69
2022-10-24T00:47:01.947Z,1016.64
2022-10-24T00:48:02.609Z,1016.63
2022-10-24T00:49:03.208Z,1016.61
2022-10-24T00:50:03.807Z,1016.63
2022-10-24T00:51:04.405Z,1016.68
2022-10-24T00:52:05.005Z,1016.69
2022-10-24T00:53:05.607Z,1016.68
2022-10-24T00:54:06.208Z,1016.63
2022-10-24T00:55:06.874Z,1016.71
2022-10-24T00:56:07.469Z,1016.68
2022-10-24T00:57:08.070Z,1016.64
2022-10-24T00:58:08.671Z,1016.65
2022-10-24T00:59:09.272Z,1016.69
2022-10-24T01:00:09.873Z,1016.65
2022-10-24T01:01:10.551Z,1016.64
2022-10-24T01:02:11.199Z,1016.61
2022-10-24T01:03:11.803Z,1016.61
2022-10-24T01:04:12.400Z,1016.66
2022-10-24T01:05:13.004Z,1016.62
2022-10-24T01:06:13.603Z,1016.66
2022-10-24T01:07:14.207Z,1016.72
2022-10-24T01:08:14.800Z,1016.63
2022-10-24T01:09:15.402Z,1016.69
2022-10-24T01:10:16.067Z,1016.72
2022-10-24T01:11:16.674Z,1016.70
2022-10-24T01:12:17.271Z,1016.71
2022-10-24T01:13:17.871Z,1016.67
2022-10-24T01:14:18.473Z,1016.66
2022-10-24T01:15:19.069Z,1016.67
2022-10-24T01:16:19.668Z,1016.70
2022-10-24T01:17:20.267Z,1016.71
2022-10-24T01:18:21.716Z,1016.70
2022-10-24T01:19:23.115Z,1016.58
2022-10-24T01:20:23.711Z,1016.63
2022-10-24T01:21:24.312Z,1016.66
2022-10-24T01:22:24.913Z,1016.60
2022-10-24T01:23:25.518Z,1016.66
2022-10-24T01:24:26.116Z,1016.57
2022-10-24T01:25:26.715Z,1016.57
2022-10-24T01:26:27.318Z,1016.59
2022-10-24T01:27:28.072Z,1016.51
2022-10-24T01:28:28.669Z,1016.60
2022-10-24T01:29:29.261Z,1016.62
2022-10-24T01:30:29.857Z,1016.59
2022-10-24T01:31:30.458Z,1016.65
2022-10-24T01:32:31.060Z,1016.59
2022-10-24T01:33:31.666Z,1016.57
2022-10-24T01:34:32.259Z,1016.56
2022-10-24T01:35:32.862Z,1016.57
2022-10-24T01:36:33.465Z,1016.53
2022-10-24T01:37:34.067Z,1016.57
2022-10-24T01:38:34.665Z,1016.53
2022-10-24T01:39:35.267Z,1016.57
2022-10-24T01:40:35.864Z,1016.62
2022-10-24T01:41:36.467Z,1016.60
2022-10-24T01:42:37.215Z,1016.62
2022-10-24T01:43:37.816Z,1016.64
2022-10-24T01:44:38.469Z,1016.69
2022-10-24T01:45:39.922Z,1016.73
2022-10-24T01:46:40.518Z,1016.69
2022-10-24T01:47:41.117Z,1016.65
2022-10-24T01:48:41.765Z,1016.74
2022-10-24T01:49:42.368Z,1016.72
2022-10-24T01:50:42.965Z,1016.69
2022-10-24T01:51:43.565Z,1016.67
2022-10-24T01:52:44.329Z,1016.74
2022-10-24T01:53:45.076Z,1016.60
2022-10-24T01:54:45.673Z,1016.67
2022-10-24T01:55:46.269Z,1016.64
2022-10-24T01:56:46.867Z,1016.61
2022-10-24T01:57:47.459Z,1016.67
2022-10-24T01:58:48.056Z,1016.62
2022-10-24T01:59:48.661Z,1016.63
2022-10-24T02:00:49.255Z,1016.53
2022-10-24T02:01:49.853Z,1016.58
2022-10-24T02:02:50.462Z,1016.62
2022-10-24T02:03:51.086Z,1016.49
2022-10-24T02:04:51.717Z,1016.56
2022-10-24T02:05:52.384Z,1016.55
2022-10-24T02:06:52.985Z,1016.51
2022-10-24T02:07:53.585Z,1016.48
2022-10-24T02:08:54.268Z,1016.42
2022-10-24T02:09:54.854Z,1016.42
2022-10-24T02:10:55.455Z,1016.44
2022-10-24T02:11:56.057Z,1016.43
2022-10-24T02:12:56.657Z,1016.37
2022-10-24T02:13:57.268Z,1016.40
2022-10-24T02:14:57.861Z,1016.41
2022-10-24T02:15:58.473Z,1016.42
2022-10-24T02:16:59.066Z,1016.48
2022-10-24T02:17:59.672Z,1016.42
2022-10-24T02:19:00.267Z,1016.41
2022-10-24T02:20:00.869Z,1016.45
2022-10-24T02:21:01.467Z,1016.39
2022-10-24T02:22:02.069Z,1016.46
2022-10-24T02:23:02.666Z,1016.41
2022-10-24T02:24:03.269Z,1016.47
2022-10-24T02:25:03.865Z,1016.42
2022-10-24T02:26:04.463Z,1016.45
2022-10-24T02:27:05.058Z,1016.43
2022-10-24T02:28:05.655Z,1016.47
2022-10-24T02:29:06.300Z,1016.41
2022-10-24T02:30:06.898Z,1016.41
2022-10-24T02:31:07.497Z,1016.33
2022-10-24T02:32:08.102Z,1016.28
2022-10-24T02:33:08.695Z,1016.31
2022-10-24T02:34:09.431Z,1016.25
2022-10-24T02:35:10.057Z,1016.37
2022-10-24T02:36:10.663Z,1016.38
2022-10-24T02:37:11.249Z,1016.36
2022-10-24T02:38:11.848Z,1016.40
2022-10-24T02:39:12.446Z,1016.39
2022-10-24T02:40:13.049Z,1016.33
2022-10-24T02:41:13.646Z,1016.38
2022-10-24T02:42:14.254Z,1016.36
2022-10-24T02:43:14.916Z,1016.44
2022-10-24T02:44:15.515Z,1016.54
2022-10-24T02:45:16.111Z,1016.50
2022-10-24T02:46:16.709Z,1016.49
2022-10-24T02:47:17.305Z,1016.42
2022-10-24T02:48:18.754Z,1016.47
2022-10-24T02:49:19.351Z,1016.54
2022-10-24T02:50:19.998Z,1016.54
2022-10-24T02:51:20.633Z,1016.52
2022-10-24T02:52:21.209Z,1016.53
2022-10-24T02:53:21.815Z,1016.50
2022-10-24T02:54:22.414Z,1016.45
2022-10-24T02:55:23.010Z,1016.41
2022-10-24T02:56:23.611Z,1016.47
2022-10-24T02:57:24.211Z,1016.51
2022-10-24T02:58:24.810Z,1016.43
2022-10-24T02:59:25.462Z,1016.52
2022-10-24T03:00:26.089Z,1016.49
2022-10-24T03:01:26.776Z,1016.57
2022-10-24T03:02:27.450Z,1016.56
2022-10-24T03:03:28.047Z,1016.50
2022-10-24T03:04:28.651Z,1016.50
2022-10-24T03:05:29.255Z,1016.56
2022-10-24T03:06:29.856Z,1016.58
2022-10-24T03:08:31.057Z,1016.56
2022-10-24T03:09:31.656Z,1016.56
2022-10-24T03:10:32.250Z,1016.61
2022-10-24T03:11:32.848Z,1016.64
2022-10-24T03:12:33.447Z,1016.49
2022-10-24T03:13:34.044Z,1016.60
2022-10-24T03:14:34.648Z,1016.62
2022-10-24T03:15:35.263Z,1016.61
2022-10-24T03:16:35.875Z,1016.58
2022-10-24T03:17:36.471Z,1016.58
2022-10-24T03:18:37.070Z,1016.61
2022-10-24T03:19:37.666Z,1016.54
2022-10-24T03:20:38.332Z,1016.60
2022-10-24T03:21:38.928Z,1016.60
2022-10-24T03:22:39.529Z,1016.60
2022-10-24T03:23:40.128Z,1016.60
2022-10-24T03:24:44.494Z,1016.55
2022-10-24T03:25:42.318Z,1016.63
2022-10-24T03:26:42.920Z,1016.60
2022-10-24T03:27:43.947Z,1016.51
2022-10-24T03:28:44.742Z,1016.60
2022-10-24T03:29:45.342Z,1016.59
2022-10-24T03:30:45.944Z,1016.54
2022-10-24T03:31:46.571Z,1016.55
2022-10-24T03:32:47.612Z,1016.56
2022-10-24T03:33:48.477Z,1016.47
2022-10-24T03:34:49.125Z,1016.50
2022-10-24T03:35:49.721Z,1016.44
2022-10-24T03:36:50.324Z,1016.49
2022-10-24T03:37:50.976Z,1016.53
2022-10-24T03:38:51.643Z,1016.45
2022-10-24T03:39:52.240Z,1016.40
2022-10-24T03:40:52.841Z,1016.46
2022-10-24T03:41:53.504Z,1016.41
2022-10-24T03:42:54.100Z,1016.29
2022-10-24T03:43:54.700Z,1016.34
2022-10-24T03:44:55.301Z,1016.45
2022-10-24T03:45:55.897Z,1016.40
2022-10-24T03:46:56.493Z,1016.37
2022-10-24T03:47:57.089Z,1016.39
2022-10-24T03:48:57.750Z,1016.44
2022-10-24T03:49:58.386Z,1016.34
2022-10-24T03:50:58.988Z,1016.36
2022-10-24T03:51:59.583Z,1016.39
2022-10-24T03:53:00.184Z,1016.41
2022-10-24T03:54:00.831Z,1016.43
2022-10-24T03:55:01.431Z,1016.39
2022-10-24T03:56:02.033Z,1016.41
2022-10-24T03:57:02.684Z,1016.37
2022-10-24T03:58:03.282Z,1016.37
2022-10-24T03:59:03.888Z,1016.39
2022-10-24T04:00:04.487Z,1016.38
2022-10-24T04:01:05.227Z,1016.39
2022-10-24T04:02:05.935Z,1016.36
2022-10-24T04:03:06.535Z,1016.48
2022-10-24T04:04:07.130Z,1016.48
2022-10-24T04:05:07.734Z,1016.36
2022-10-24T04:06:08.386Z,1016.44
2022-10-24T04:07:08.986Z,1016.48
2022-10-24T04:08:09.583Z,1016.48
2022-10-24T04:09:10.246Z,1016.41
2022-10-24T04:10:10.846Z,1016.47
2022-10-24T04:11:11.448Z,1016.49
2022-10-24T04:12:12.042Z,1016.50
2022-10-24T04:13:13.493Z,1016.48
2022-10-24T04:14:14.091Z,1016.41
2022-10-24T04:15:14.691Z,1016.41
2022-10-24T04:16:15.287Z,1016.48
2022-10-24T04:17:15.882Z,1016.40
2022-10-24T04:18:16.480Z,1016.40
2022-10-24T04:19:17.082Z,1016.41
2022-10-24T04:20:17.681Z,1016.46
2022-10-24T04:21:21.748Z,1016.47
2022-10-24T04:22:21.960Z,1016.45
2022-10-24T04:23:20.527Z,1016.43
2022-10-24T04:24:21.127Z,1016.47
2022-10-24T04:25:21.726Z,1016.45
2022-10-24T04:26:22.321Z,1016.40
2022-10-24T04:27:22.921Z,1016.45
2022-10-24T04:28:23.522Z,1016.46
2022-10-24T04:29:24.121Z,1016.50
2022-10-24T04:30:24.787Z,1016.46
2022-10-24T04:31:25.387Z,1016.48
2022-10-24T04:32:25.988Z,1016.40
2022-10-24T04:33:26.586Z,1016.42
2022-10-24T04:34:27.184Z,1016.51
2022-10-24T04:35:27.832Z,1016.48
2022-10-24T04:36:28.429Z,1016.51
2022-10-24T04:37:29.029Z,1016.45
2022-10-24T04:38:33.314Z,1016.47
2022-10-24T04:39:31.273Z,1016.48
2022-10-24T04:40:31.875Z,1016.59
2022-10-24T04:41:32.469Z,1016.54
2022-10-24T04:42:33.063Z,1016.66
2022-10-24T04:43:33.665Z,1016.63
2022-10-24T04:44:34.270Z,1016.70
2022-10-24T04:45:34.930Z,1016.68
2022-10-24T04:46:35.530Z,1016.65
2022-10-24T04:47:36.131Z,1016.66
2022-10-24T04:48:36.726Z,1016.70
2022-10-24T04:49:37.325Z,1016.58
2022-10-24T04:50:37.922Z,1016.62
2022-10-24T04:51:38.524Z,1016.69
2022-10-24T04:52:39.125Z,1016.69
2022-10-24T04:53:39.726Z,1016.74
2022-10-24T04:54:40.328Z,1016.69
2022-10-24T04:55:40.931Z,1016.70
2022-10-24T04:56:41.527Z,1016.69
2022-10-24T04:57:42.339Z,1016.68
2022-10-24T04:58:43.073Z,1016.57
2022-10-24T04:59:43.673Z,1016.68
2022-10-24T05:00:44.271Z,1016.60
2022-10-24T05:01:44.968Z,1016.66
2022-10-24T05:02:45.671Z,1016.64
2022-10-24T05:03:46.423Z,1016.61
2022-10-24T05:04:47.022Z,1016.63
2022-10-24T05:05:47.626Z,1016.70
2022-10-24T05:06:48.224Z,1016.66
2022-10-24T05:07:48.822Z,1016.70
2022-10-24T05:08:49.417Z,1016.64
2022-10-24T05:09:50.020Z,1016.70
2022-10-24T05:10:50.761Z,1016.66
2022-10-24T05:11:51.361Z,1016.67
2022-10-24T05:12:51.955Z,1016.67
2022-10-24T05:13:52.553Z,1016.70
2022-10-24T05:14:53.215Z,1016.64
2022-10-24T05:15:53.814Z,1016.64
2022-10-24T05:16:54.888Z,1016.72
2022-10-24T05:17:55.523Z,1016.74
2022-10-24T05:18:56.125Z,1016.78
2022-10-24T05:19:56.843Z,1016.79
2022-10-24T05:20:57.475Z,1016.79
2022-10-24T05:21:58.109Z,1016.83
2022-10-24T05:22:58.706Z,1016.74
2022-10-24T05:23:59.311Z,1016.85
2022-10-24T05:24:59.909Z,1016.73
2022-10-24T05:26:00.510Z,1016.79
2022-10-24T05:27:01.107Z,1016.82
2022-10-24T05:28:01.705Z,1016.84
2022-10-24T05:29:02.336Z,1016.86
2022-10-24T05:30:02.931Z,1016.82
2022-10-24T05:31:03.530Z,1016.93
2022-10-24T05:32:04.181Z,1016.88
2022-10-24T05:33:05.626Z,1016.93
2022-10-24T05:34:06.224Z,1016.93
2022-10-24T05:35:07.671Z,1016.93
2022-10-24T05:36:08.271Z,1016.87
2022-10-24T05:37:08.866Z,1016.93
2022-10-24T05:38:09.465Z,1017.04
2022-10-24T05:39:10.060Z,1016.98
2022-10-24T05:40:11.458Z,1016.99
2022-10-24T05:41:12.103Z,1017.01
2022-10-24T05:42:12.693Z,1017.01
2022-10-24T05:43:13.293Z,1016.95
2022-10-24T05:44:13.891Z,1017.04
2022-10-24T05:45:14.489Z,1017.04
2022-10-24T05:46:15.089Z,1017.09
2022-10-24T05:47:15.682Z,1017.05
2022-10-24T05:48:16.277Z,1017.05
2022-10-24T05:49:16.878Z,1017.03
2022-10-24T05:50:17.472Z,1017.02
2022-10-24T05:51:18.069Z,1017.09
2022-10-24T05:52:18.667Z,1017.11
2022-10-24T05:53:19.393Z,1017.05
2022-10-24T05:54:19.981Z,1017.05
2022-10-24T05:55:20.575Z,1017.07
2022-10-24T05:56:21.175Z,1017.04
2022-10-24T05:57:21.924Z,1017.02
2022-10-24T05:58:22.525Z,1017.02
2022-10-24T05:59:23.123Z,1016.92
2022-10-24T06:00:23.786Z,1016.97
2022-10-24T06:01:24.480Z,1016.96
2022-10-24T06:02:25.248Z,1017.01
2022-10-24T06:03:26.683Z,1017.00
2022-10-24T06:04:27.288Z,1017.05
2022-10-24T06:05:27.946Z,1017.05
2022-10-24T06:06:28.545Z,1016.94
2022-10-24T06:07:29.142Z,1017.02
2022-10-24T06:08:29.742Z,1016.97
2022-10-24T06:09:30.337Z,1017.02
2022-10-24T06:10:30.933Z,1017.06
2022-10-24T06:11:31.531Z,1017.11
2022-10-24T06:12:32.126Z,1017.04
2022-10-24T06:13:35.405Z,1016.98
2022-10-24T06:14:34.315Z,1017.06
2022-10-24T06:15:34.910Z,1017.06
2022-10-24T06:16:35.512Z,1017.00
2022-10-24T06:17:36.108Z,1017.11
2022-10-24T06:18:36.704Z,1016.97
2022-10-24T06:19:37.368Z,1017.02
2022-10-24T06:20:37.951Z,1017.05
2022-10-24T06:21:38.556Z,1017.01
2022-10-24T06:22:39.156Z,1017.06
2022-10-24T06:23:39.754Z,1017.11
2022-10-24T06:24:40.357Z,1016.99
2022-10-24T06:25:40.955Z,1017.08
2022-10-24T06:26:41.553Z,1017.11
2022-10-24T06:27:42.152Z,1017.03
2022-10-24T06:28:42.748Z,1017.12
2022-10-24T06:29:43.350Z,1017.16
2022-10-24T06:30:43.949Z,1017.12
2022-10-24T06:31:44.550Z,1017.09
2022-10-24T06:32:45.174Z,1017.14
2022-10-24T06:33:45.847Z,1017.11
2022-10-24T06:34:46.464Z,1017.15
2022-10-24T06:35:47.123Z,1017.14
2022-10-24T06:36:48.573Z,1017.19
2022-10-24T06:37:49.391Z,1017.17
2022-10-24T06:38:50.169Z,1017.19
2022-10-24T06:39:50.766Z,1017.10
2022-10-24T06:40:51.418Z,1017.18
2022-10-24T06:41:52.866Z,1017.25
2022-10-24T06:42:53.528Z,1017.16
2022-10-24T06:43:54.130Z,1017.21
2022-10-24T06:44:54.764Z,1017.26
2022-10-24T06:45:55.378Z,1017.27
2022-10-24T06:46:55.976Z,1017.26
2022-10-24T06:47:56.815Z,1017.27
2022-10-24T06:48:57.644Z,1017.36
2022-10-24T06:49:58.325Z,1017.30
2022-10-24T06:50:58.989Z,1017.36
2022-10-24T06:51:59.661Z,1017.37
2022-10-24T06:53:01.060Z,1017.43
2022-10-24T06:54:01.657Z,1017.45
2022-10-24T06:55:02.253Z,1017.36
2022-10-24T06:56:02.852Z,1017.39
2022-10-24T06:57:03.455Z,1017.43
2022-10-24T06:58:04.046Z,1017.43
2022-10-24T06:59:04.637Z,1017.37
2022-10-24T07:00:05.238Z,1017.44
2022-10-24T07:01:05.900Z,1017.43
2022-10-24T07:02:06.670Z,1017.39
2022-10-24T07:03:07.348Z,1017.43
2022-10-24T07:04:07.948Z,1017.41
2022-10-24T07:05:08.544Z,1017.48
2022-10-24T07:06:09.196Z,1017.41
2022-10-24T07:07:09.803Z,1017.53
2022-10-24T07:08:10.397Z,1017.44
2022-10-24T07:09:14.326Z,1017.52
2022-10-24T07:10:12.591Z,1017.50
2022-10-24T07:11:13.192Z,1017.49
2022-10-24T07:12:13.887Z,1017.54
2022-10-24T07:13:14.460Z,1017.55
2022-10-24T07:14:15.061Z,1017.55
2022-10-24T07:15:15.659Z,1017.50
2022-10-24T07:16:16.310Z,1017.57
2022-10-24T07:17:16.923Z,1017.48
2022-10-24T07:18:17.526Z,1017.54
2022-10-24T07:19:18.123Z,1017.52
2022-10-24T07:20:18.724Z,1017.54
2022-10-24T07:21:19.325Z,1017.57
2022-10-24T07:22:19.921Z,1017.56
2022-10-24T07:23:20.521Z,1017.50
2022-10-24T07:24:21.293Z,1017.49
2022-10-24T07:25:21.895Z,1017.55
2022-10-24T07:26:22.488Z,1017.60
2022-10-24T07:27:23.084Z,1017.63
2022-10-24T07:28:23.680Z,1017.60
2022-10-24T07:29:24.282Z,1017.66
2022-10-24T07:30:24.994Z,1017.64
2022-10-24T07:31:25.602Z,1017.55
2022-10-24T07:32:26.199Z,1017.72
2022-10-24T07:33:26.795Z,1017.64
2022-10-24T07:34:27.394Z,1017.78
2022-10-24T07:35:28.795Z,1017.70
2022-10-24T07:36:29.392Z,1017.71
2022-10-24T07:37:30.063Z,1017.85
2022-10-24T07:38:30.645Z,1017.87
2022-10-24T07:39:31.291Z,1017.87
2022-10-24T07:40:31.888Z,1017.84
2022-10-24T07:41:32.488Z,1017.86
2022-10-24T07:42:33.136Z,1017.92
2022-10-24T07:43:33.739Z,1017.92
2022-10-24T07:44:35.191Z,1017.85
2022-10-24T07:45:35.790Z,1017.94
2022-10-24T07:46:36.393Z,1017.99
2022-10-24T07:47:36.995Z,1017.94
2022-10-24T07:48:37.664Z,1017.94
2022-10-24T07:49:38.264Z,1018.05
2022-10-24T07:50:38.859Z,1018.03
2022-10-24T07:51:39.458Z,1018.11
2022-10-24T07:52:40.060Z,1018.01
2022-10-24T07:53:40.811Z,1018.12
2022-10-24T07:54:41.412Z,1018.06
2022-10-24T07:55:42.008Z,1018.09
2022-10-24T07:56:42.610Z,1018.04
2022-10-24T07:57:43.634Z,1018.04
2022-10-24T07:58:44.437Z,1018.07
2022-10-24T07:59:45.038Z,1018.12
2022-10-24T08:00:45.792Z,1018.13
2022-10-24T08:01:46.439Z,1018.17
2022-10-24T08:02:47.125Z,1018.09
2022-10-24T08:03:48.534Z,1018.21
2022-10-24T08:04:49.133Z,1018.23
2022-10-24T08:05:49.730Z,1018.20
2022-10-24T08:06:50.329Z,1018.25
2022-10-24T08:07:56.012Z,1018.21
2022-10-24T08:08:52.516Z,1018.27
2022-10-24T08:09:53.116Z,1018.38
2022-10-24T08:10:53.766Z,1018.30
2022-10-24T08:11:54.369Z,1018.40
2022-10-24T08:12:54.969Z,1018.39
2022-10-24T08:13:55.564Z,1018.48
2022-10-24T08:14:56.165Z,1018.42
2022-10-24T08:15:56.767Z,1018.48
2022-10-24T08:16:57.464Z,1018.48
2022-10-24T08:17:58.031Z,1018.51
2022-10-24T08:18:58.632Z,1018.57
2022-10-24T08:19:59.231Z,1018.53
2022-10-24T08:20:59.830Z,1018.54
2022-10-24T08:22:00.428Z,1018.57
2022-10-24T08:23:01.027Z,1018.68
2022-10-24T08:24:01.623Z,1018.57
2022-10-24T08:25:02.225Z,1018.71
2022-10-24T08:26:02.826Z,1018.71
2022-10-24T08:27:03.534Z,1018.69
2022-10-24T08:28:08.134Z,1018.83
2022-10-24T08:29:05.726Z,1018.82
2022-10-24T08:30:06.325Z,1018.87
2022-10-24T08:31:06.917Z,1018.78
2022-10-24T08:32:07.511Z,1018.76
2022-10-24T08:33:08.111Z,1018.90
2022-10-24T08:34:08.706Z,1018.85
2022-10-24T08:35:09.306Z,1018.85
2022-10-24T08:36:09.903Z,1018.89
2022-10-24T08:37:10.496Z,1018.83
2022-10-24T08:38:11.098Z,1018.83
2022-10-24T08:39:12.547Z,1018.82
2022-10-24T08:40:13.148Z,1018.88
2022-10-24T08:41:13.747Z,1018.84
2022-10-24T08:42:14.425Z,1018.87
2022-10-24T08:43:15.060Z,1018.86
2022-10-24T08:44:15.655Z,1018.87
2022-10-24T08:45:16.250Z,1018.86
2022-10-24T08:46:16.850Z,1018.91
2022-10-24T08:47:17.454Z,1018.98
2022-10-24T08:48:18.054Z,1018.97
2022-10-24T08:49:18.659Z,1018.93
2022-10-24T08:50:19.252Z,1019.07
2022-10-24T08:51:19.897Z,1019.02
2022-10-24T08:52:20.513Z,1018.94
2022-10-24T08:53:21.097Z,1018.96
2022-10-24T08:54:21.913Z,1018.96
2022-10-24T08:55:43.924Z,1019.02
2022-10-24T08:56:24.110Z,1019.05
2022-10-24T08:57:24.740Z,1019.03
2022-10-24T08:58:25.488Z,1019.01
2022-10-24T08:59:26.088Z,1019.04
2022-10-24T09:00:26.684Z,1019.05
2022-10-24T09:01:27.376Z,1019.10
2022-10-24T09:02:28.145Z,1019.06
2022-10-24T09:03:43.896Z,1019.03
2022-10-24T09:04:30.382Z,1019.06
2022-10-24T09:05:31.779Z,1019.09
2022-10-24T09:06:32.374Z,1019.08
2022-10-24T09:07:33.121Z,1019.08
2022-10-24T09:08:33.721Z,1019.05
2022-10-24T09:09:34.317Z,1019.10
2022-10-24T09:10:34.916Z,1019.08
2022-10-24T09:11:35.512Z,1019.15
2022-10-24T09:12:36.115Z,1019.15
2022-10-24T09:13:36.711Z,1019.19
2022-10-24T09:14:37.308Z,1019.13
2022-10-24T09:15:37.904Z,1019.06
2022-10-24T09:16:38.502Z,1019.13
2022-10-24T09:17:39.113Z,1019.06
2022-10-24T09:18:39.698Z,1019.12
2022-10-24T09:19:40.298Z,1019.15
2022-10-24T09:20:40.899Z,1019.12
2022-10-24T09:21:41.501Z,1019.11
2022-10-24T09:22:44.224Z,1019.17
2022-10-24T09:23:43.764Z,1019.06
2022-10-24T09:24:44.366Z,1019.20
2022-10-24T09:25:44.965Z,1019.17
2022-10-24T09:26:45.567Z,1019.19
2022-10-24T09:27:46.565Z,1019.19
2022-10-24T09:28:47.378Z,1019.25
2022-10-24T09:29:47.975Z,1019.17
2022-10-24T09:30:48.580Z,1019.19
2022-10-24T09:31:49.249Z,1019.24
2022-10-24T09:32:49.851Z,1019.15
2022-10-24T09:33:50.448Z,1019.14
2022-10-24T09:34:51.047Z,1019.13
2022-10-24T09:35:51.643Z,1019.15
2022-10-24T09:36:52.244Z,1019.15
2022-10-24T09:37:53.117Z,1019.18
2022-10-24T09:38:53.863Z,1019.23
2022-10-24T09:39:54.460Z,1019.22
2022-10-24T09:40:55.059Z,1019.17
2022-10-24T09:41:55.662Z,1019.26
2022-10-24T09:42:56.262Z,1019.20
2022-10-24T09:43:56.910Z,1019.14
2022-10-24T09:44:57.562Z,1019.25
2022-10-24T09:45:58.160Z,1019.20
2022-10-24T09:46:58.774Z,1019.25
2022-10-24T09:47:59.374Z,1019.25
2022-10-24T09:48:59.972Z,1019.26
2022-10-24T09:50:00.570Z,1019.25
2022-10-24T09:51:01.173Z,1019.25
2022-10-24T09:52:01.775Z,1019.17
2022-10-24T09:53:02.374Z,1019.21
2022-10-24T09:54:02.976Z,1019.28
2022-10-24T09:55:03.578Z,1019.15
2022-10-24T09:56:04.178Z,1019.28
2022-10-24T09:57:05.690Z,1019.22
2022-10-24T09:58:06.319Z,1019.26
2022-10-24T09:59:06.968Z,1019.19
2022-10-24T10:00:07.569Z,1019.19
2022-10-24T10:01:08.264Z,1019.17
2022-10-24T10:02:09.046Z,1019.19
2022-10-24T10:03:09.661Z,1019.27
2022-10-24T10:04:13.078Z,1019.21
2022-10-24T10:05:11.912Z,1019.22
2022-10-24T10:06:12.725Z,1019.26
2022-10-24T10:07:13.320Z,1019.15
2022-10-24T10:08:13.916Z,1019.22
2022-10-24T10:09:14.513Z,1019.19
2022-10-24T10:10:15.114Z,1019.11
2022-10-24T10:11:15.706Z,1019.19
2022-10-24T10:12:16.301Z,1019.17
2022-10-24T10:13:16.904Z,1019.22
2022-10-24T10:14:17.498Z,1019.13
2022-10-24T10:15:18.249Z,1019.10
2022-10-24T10:16:18.849Z,1019.08
2022-10-24T10:17:19.447Z,1019.12
2022-10-24T10:18:20.042Z,1019.05
2022-10-24T10:19:20.643Z,1019.11
2022-10-24T10:20:21.240Z,1019.14
2022-10-24T10:21:21.842Z,1019.14
2022-10-24T10:22:22.507Z,1019.09
2022-10-24T10:23:23.105Z,1019.04
2022-10-24T10:24:23.709Z,1019.00
2022-10-24T10:25:24.314Z,1019.06
2022-10-24T10:26:24.983Z,1019.03
2022-10-24T10:27:25.583Z,1019.01
2022-10-24T10:28:26.184Z,1018.96
2022-10-24T10:29:26.786Z,1019.01
2022-10-24T10:30:27.382Z,1019.01
2022-10-24T10:31:27.994Z,1018.95
2022-10-24T10:32:28.582Z,1018.95
2022-10-24T10:33:29.209Z,1018.99
2022-10-24T10:34:29.810Z,1018.95
2022-10-24T10:35:30.408Z,1018.91
2022-10-24T10:36:31.005Z,1018.95
2022-10-24T10:37:31.607Z,1018.93
2022-10-24T10:38:32.216Z,1018.90
2022-10-24T10:39:32.809Z,1018.97
2022-10-24T10:40:33.410Z,1018.92
2022-10-24T10:41:34.008Z,1018.89
2022-10-24T10:42:34.609Z,1018.98
2022-10-24T10:43:35.217Z,1018.96
2022-10-24T10:44:35.803Z,1018.89
2022-10-24T10:45:36.402Z,1018.89
2022-10-24T10:46:36.998Z,1018.95
2022-10-24T10:47:37.596Z,1018.84
2022-10-24T10:48:38.192Z,1018.84
2022-10-24T10:49:38.843Z,1018.89
2022-10-24T10:50:39.441Z,1018.78
2022-10-24T10:51:40.188Z,1018.84
2022-10-24T10:52:40.785Z,1018.82
2022-10-24T10:53:41.384Z,1018.79
2022-10-24T10:54:41.983Z,1018.82
2022-10-24T10:55:42.582Z,1018.84
2022-10-24T10:56:43.180Z,1018.87
2022-10-24T10:57:43.783Z,1018.89
2022-10-24T10:58:44.383Z,1018.86
2022-10-24T10:59:44.987Z,1018.88
2022-10-24T11:00:45.638Z,1018.92
2022-10-24T11:01:46.485Z,1018.94
2022-10-24T11:02:49.494Z,1018.94
2022-10-24T11:03:49.529Z,1018.89
2022-10-24T11:04:50.178Z,1018.95
2022-10-24T11:05:50.775Z,1018.95
2022-10-24T11:06:51.402Z,1018.90
2022-10-24T11:07:51.995Z,1018.95
2022-10-24T11:08:52.593Z,1018.90
2022-10-24T11:09:53.191Z,1019.02
2022-10-24T11:10:54.639Z,1018.99
2022-10-24T11:11:55.239Z,1018.83
2022-10-24T11:12:55.839Z,1018.95
2022-10-24T11:13:56.440Z,1018.99
2022-10-24T11:14:57.040Z,1018.92
2022-10-24T11:15:57.642Z,1018.90
2022-10-24T11:16:58.247Z,1018.99
2022-10-24T11:17:58.892Z,1019.02
2022-10-24T11:18:59.559Z,1018.99
2022-10-24T11:20:00.229Z,1019.00
2022-10-24T11:21:00.828Z,1018.98
2022-10-24T11:22:01.430Z,1019.07
2022-10-24T11:23:02.030Z,1019.01
2022-10-24T11:24:02.633Z,1018.96
2022-10-24T11:25:03.233Z,1019.04
2022-10-24T11:26:03.835Z,1018.98
2022-10-24T11:27:04.439Z,1018.99
2022-10-24T11:28:05.038Z,1019.09
2022-10-24T11:29:05.634Z,1019.02
2022-10-24T11:30:06.237Z,1019.02
2022-10-24T11:31:06.829Z,1018.90
2022-10-24T11:32:08.330Z,1018.99
2022-10-24T11:33:08.923Z,1019.02
2022-10-24T11:34:09.540Z,1019.04
2022-10-24T11:35:11.042Z,1019.02
2022-10-24T11:36:11.689Z,1019.03
2022-10-24T11:37:12.351Z,1019.07
2022-10-24T11:38:13.099Z,1019.09
2022-10-24T11:39:13.749Z,1018.95
2022-10-24T11:40:14.531Z,1019.00
2022-10-24T11:41:15.272Z,1018.99
2022-10-24T11:42:15.912Z,1018.93
2022-10-24T11:43:16.597Z,1018.95
2022-10-24T11:44:17.274Z,1018.96
2022-10-24T11:45:17.880Z,1018.91
2022-10-24T11:46:18.478Z,1018.98
2022-10-24T11:47:19.078Z,1018.96
2022-10-24T11:48:19.746Z,1018.91
2022-10-24T11:49:20.344Z,1018.85
2022-10-24T11:50:23.311Z,1018.89
2022-10-24T11:51:21.609Z,1018.97
2022-10-24T11:52:22.217Z,1018.87
2022-10-24T11:53:22.812Z,1018.91
2022-10-24T11:54:23.413Z,1018.93
2022-10-24T11:55:24.019Z,1018.90
2022-10-24T11:56:27.107Z,1018.84
2022-10-24T11:57:26.205Z,1018.86
2022-10-24T11:58:26.803Z,1018.83
2022-10-24T11:59:27.402Z,1018.79
2022-10-24T12:00:28.000Z,1018.85
2022-10-24T12:01:28.625Z,1018.81
2022-10-24T12:02:29.237Z,1018.80
2022-10-24T12:03:29.824Z,1018.80
2022-10-24T12:04:30.434Z,1018.78
2022-10-24T12:05:31.043Z,1018.76
2022-10-24T12:06:31.658Z,1018.79
2022-10-24T12:07:32.255Z,1018.74
2022-10-24T12:08:32.858Z,1018.82
2022-10-24T12:09:34.470Z,1018.78
2022-10-24T12:10:35.042Z,1018.78
2022-10-24T12:11:35.638Z,1018.73
2022-10-24T12:12:36.236Z,1018.72
2022-10-24T12:13:37.810Z,1018.67
2022-10-24T12:14:38.406Z,1018.68